Time;durP1;ratioP1;P1;durP2;ratioP2;P2;SDS_P1;SDS_P2;PMS_P1;PMS_P2;Temp;Humidity;BMP_temperature;BMP_pressure;BME280_temperature;BME280_humidity;BME280_pressure;Samples;Min_cycle;Max_cycle;Signal;HPM_P1;HPM_P2
2022/05/29 00:01:04;;;;;;;2.87;2.43;;;12.00;84.10;;;;;;5072763;28;20213;-63
2022/05/29 00:03:29;;;;;;;4.97;2.37;;;12.00;84.20;;;;;;5037907;28;20232;-64
2022/05/29 00:05:55;;;;;;;3.13;2.57;;;12.00;84.30;;;;;;5057830;28;20281;-64
2022/05/29 00:08:33;;;;;;;2.60;2.40;;;12.00;84.30;;;;;;5052635;28;20197;-64
2022/05/29 00:11:00;;;;;;;2.70;2.47;;;11.90;84.30;;;;;;5060050;28;20228;-63
2022/05/29 00:13:27;;;;;;;4.37;2.17;;;11.90;83.70;;;;;;5054404;28;20183;-63
2022/05/29 00:15:53;;;;;;;2.40;2.20;;;11.90;83.60;;;;;;5073074;28;20181;-62
2022/05/29 00:18:19;;;;;;;8.47;2.13;;;11.80;83.20;;;;;;5064130;28;20187;-63
2022/05/29 00:20:51;;;;;;;2.80;1.83;;;11.80;83.00;;;;;;5054746;28;20251;-62
2022/05/29 00:23:17;;;;;;;3.23;2.27;;;11.80;83.10;;;;;;5068948;28;20181;-63
2022/05/29 00:25:49;;;;;;;2.27;1.90;;;11.80;83.00;;;;;;5038996;28;20470;-63
2022/05/29 00:28:15;;;;;;;3.03;2.07;;;11.80;82.90;;;;;;5070234;28;20208;-63
2022/05/29 00:30:41;;;;;;;3.47;1.90;;;11.80;82.90;;;;;;5064151;28;20193;-62
2022/05/29 00:33:08;;;;;;;2.90;1.90;;;11.80;83.10;;;;;;5053337;28;20181;-62
2022/05/29 00:35:34;;;;;;;3.93;2.30;;;11.70;83.20;;;;;;5068563;28;20196;-62
2022/05/29 00:38:00;;;;;;;5.77;2.10;;;11.70;83.40;;;;;;5055881;28;20182;-62
2022/05/29 00:40:28;;;;;;;2.90;2.20;;;11.70;83.40;;;;;;5060618;28;20437;-62
2022/05/29 00:42:54;;;;;;;2.10;1.90;;;11.60;83.30;;;;;;5065742;28;20237;-62
2022/05/29 00:45:22;;;;;;;3.17;2.03;;;11.60;83.50;;;;;;5055723;28;20202;-62
2022/05/29 00:47:48;;;;;;;4.13;2.53;;;11.60;83.70;;;;;;5066299;28;20178;-62
2022/05/29 00:50:20;;;;;;;3.23;2.10;;;11.60;83.70;;;;;;5066358;28;20178;-62
2022/05/29 00:52:47;;;;;;;4.17;2.00;;;11.60;84.00;;;;;;5056926;28;20183;-62
2022/05/29 00:55:17;;;;;;;3.30;2.20;;;11.60;84.00;;;;;;5071409;28;20478;-63
2022/05/29 00:57:52;;;;;;;2.87;2.40;;;11.60;84.20;;;;;;5060190;28;20427;-63
2022/05/29 01:00:25;;;;;;;2.30;2.10;;;11.60;84.10;;;;;;5067016;28;20272;-62
2022/05/29 01:02:53;;;;;;;2.63;2.43;;;11.60;84.10;;;;;;5066405;28;20184;-63
2022/05/29 01:05:20;;;;;;;6.00;2.50;;;11.60;83.70;;;;;;5070340;28;20609;-62
2022/05/29 01:07:52;;;;;;;3.50;2.20;;;11.60;83.90;;;;;;5074263;28;20440;-62
2022/05/29 01:10:18;;;;;;;3.23;2.30;;;11.60;83.70;;;;;;5067334;28;20179;-63
2022/05/29 01:13:28;;;;;;;4.70;2.47;;;11.60;83.40;;;;;;5053191;28;20189;-62
2022/05/29 01:16:12;;;;;;;5.83;2.17;;;11.60;83.20;;;;;;5058797;28;20200;-62
2022/05/29 01:19:04;;;;;;;2.60;2.30;;;11.60;83.00;;;;;;5072762;28;20447;-62
2022/05/29 01:22:05;;;;;;;3.13;2.47;;;11.70;82.80;;;;;;5078648;28;20503;-63
2022/05/29 01:24:43;;;;;;;4.37;2.20;;;11.70;82.70;;;;;;5059860;28;20173;-63
2022/05/29 01:27:15;;;;;;;4.27;2.40;;;11.70;82.50;;;;;;5062662;28;20443;-62
2022/05/29 01:30:02;;;;;;;3.50;1.97;;;11.70;82.30;;;;;;5076224;28;20225;-62
2022/05/29 01:33:03;;;;;;;1.97;1.80;;;11.60;81.80;;;;;;5076445;28;20416;-62
2022/05/29 01:35:35;;;;;;;3.17;2.07;;;11.60;81.70;;;;;;5062418;28;20436;-62
2022/05/29 01:38:15;;;;;;;2.27;2.03;;;11.60;81.40;;;;;;5072389;28;20186;-63
2022/05/29 01:40:49;;;;;;;1.83;1.73;;;11.60;81.50;;;;;;5087544;28;20424;-63
2022/05/29 01:43:52;;;;;;;5.30;2.50;;;11.60;81.30;;;;;;5075128;28;20491;-62
2022/05/29 01:46:22;;;;;;;2.93;1.87;;;11.60;81.40;;;;;;5067120;28;20201;-62
2022/05/29 01:48:58;;;;;;;2.33;1.93;;;11.60;81.10;;;;;;5071094;28;20423;-62
2022/05/29 01:51:55;;;;;;;3.37;1.80;;;11.60;81.10;;;;;;5065603;28;20515;-62
2022/05/29 01:54:38;;;;;;;3.20;2.23;;;11.60;81.30;;;;;;5076865;28;20182;-62
2022/05/29 01:57:27;;;;;;;3.47;1.97;;;11.50;81.70;;;;;;5072778;28;20432;-62
2022/05/29 02:00:00;;;;;;;2.50;1.60;;;11.50;82.00;;;;;;5090807;28;20174;-62
2022/05/29 02:02:35;;;;;;;2.43;2.23;;;11.60;82.20;;;;;;5065346;28;20170;-63
2022/05/29 02:05:07;;;;;;;4.30;2.63;;;11.60;82.50;;;;;;5073686;28;20482;-63
2022/05/29 02:07:50;;;;;;;4.70;2.07;;;11.50;82.30;;;;;;5074150;28;20424;-63
2022/05/29 02:10:36;;;;;;;2.60;2.10;;;11.50;82.10;;;;;;5075376;28;20484;-64
2022/05/29 02:13:17;;;;;;;3.40;1.90;;;11.50;81.90;;;;;;5061712;28;20405;-63
2022/05/29 02:16:08;;;;;;;3.10;1.80;;;11.50;81.80;;;;;;5057310;28;20484;-63
2022/05/29 02:19:03;;;;;;;2.90;2.00;;;11.50;81.80;;;;;;5061907;28;20300;-63
2022/05/29 02:21:39;;;;;;;5.10;2.03;;;11.50;81.80;;;;;;5072336;28;20443;-64
2022/05/29 02:24:12;;;;;;;3.20;1.63;;;11.40;81.70;;;;;;5074603;28;20530;-64
2022/05/29 02:26:43;;;;;;;2.47;1.83;;;11.40;81.50;;;;;;5087904;28;20460;-63
2022/05/29 02:29:11;;;;;;;2.47;2.03;;;11.40;80.70;;;;;;5064523;28;20413;-63
2022/05/29 02:31:58;;;;;;;1.93;1.80;;;11.30;80.90;;;;;;5044904;28;20439;-63
2022/05/29 02:34:35;;;;;;;2.93;1.90;;;11.40;81.50;;;;;;5074338;28;20428;-63
2022/05/29 02:37:30;;;;;;;2.47;1.97;;;11.40;81.40;;;;;;5071646;28;20413;-63
2022/05/29 02:40:29;;;;;;;2.13;1.80;;;11.40;82.00;;;;;;5069345;28;20436;-63
2022/05/29 02:43:12;;;;;;;6.27;2.00;;;11.40;82.40;;;;;;5074104;28;20468;-63
2022/05/29 02:45:46;;;;;;;2.23;2.00;;;11.30;82.50;;;;;;5059376;28;20535;-63
2022/05/29 02:48:43;;;;;;;2.30;2.10;;;11.40;82.60;;;;;;5074614;28;20503;-63
2022/05/29 02:51:18;;;;;;;2.90;2.10;;;11.40;82.60;;;;;;5054809;28;20436;-63
2022/05/29 02:53:46;;;;;;;2.63;2.30;;;11.40;82.20;;;;;;5061385;28;20471;-62
2022/05/29 02:56:12;;;;;;;3.13;2.27;;;11.40;82.50;;;;;;5057651;28;20436;-63
2022/05/29 02:58:40;;;;;;;2.50;2.13;;;11.40;82.70;;;;;;5057014;28;20509;-63
2022/05/29 03:01:29;;;;;;;2.17;1.97;;;11.40;82.50;;;;;;5053474;28;20417;-63
2022/05/29 03:03:58;;;;;;;3.80;1.70;;;11.40;82.00;;;;;;5071908;28;20436;-63
2022/05/29 03:06:47;;;;;;;2.47;2.17;;;11.40;82.00;;;;;;5073643;28;20502;-63
2022/05/29 03:09:19;;;;;;;2.93;2.57;;;11.50;82.00;;;;;;5071893;28;20217;-63
2022/05/29 03:11:46;;;;;;;2.00;1.80;;;11.50;81.70;;;;;;5074340;28;20428;-63
2022/05/29 03:14:33;;;;;;;6.43;2.10;;;11.40;81.50;;;;;;5071656;28;20408;-64
2022/05/29 03:17:28;;;;;;;2.10;1.90;;;11.50;81.40;;;;;;5074956;28;20418;-63
2022/05/29 03:20:07;;;;;;;2.40;2.03;;;11.50;81.20;;;;;;5059723;28;20181;-63
2022/05/29 03:22:50;;;;;;;4.33;2.00;;;11.50;81.20;;;;;;5074158;28;20435;-63
2022/05/29 03:25:29;;;;;;;3.67;2.07;;;11.40;81.00;;;;;;5067709;28;20605;-63
2022/05/29 03:27:58;;;;;;;2.00;1.67;;;11.50;81.30;;;;;;5059738;28;20434;-63
2022/05/29 03:30:28;;;;;;;4.03;1.93;;;11.50;81.60;;;;;;5063183;28;20434;-63
2022/05/29 03:32:59;;;;;;;5.20;2.20;;;11.40;81.70;;;;;;5061443;28;20448;-63
2022/05/29 03:35:36;;;;;;;4.67;2.20;;;11.40;82.00;;;;;;5067879;28;20460;-63
2022/05/29 03:38:04;;;;;;;3.20;1.97;;;11.50;82.20;;;;;;5070946;28;20433;-63
2022/05/29 03:40:31;;;;;;;2.30;2.10;;;11.50;81.90;;;;;;5053398;28;20429;-63
2022/05/29 03:42:58;;;;;;;5.57;2.20;;;11.50;82.00;;;;;;5076161;28;20479;-63
2022/05/29 03:45:24;;;;;;;2.07;1.80;;;11.40;81.90;;;;;;5056116;28;20519;-63
2022/05/29 03:47:50;;;;;;;2.70;1.90;;;11.50;81.80;;;;;;5049958;28;20222;-63
2022/05/29 03:50:18;;;;;;;2.10;1.90;;;11.50;81.60;;;;;;5058495;28;20453;-63
2022/05/29 03:52:45;;;;;;;2.77;1.90;;;11.50;81.60;;;;;;5070573;28;20232;-63
2022/05/29 03:55:11;;;;;;;2.40;2.07;;;11.50;81.50;;;;;;5054643;28;20186;-63
2022/05/29 03:57:37;;;;;;;1.87;1.77;;;11.50;81.30;;;;;;5060027;28;20463;-63
2022/05/29 04:00:05;;;;;;;2.90;1.97;;;11.50;81.20;;;;;;5063696;28;20222;-64
2022/05/29 04:02:31;;;;;;;4.83;2.00;;;11.50;81.00;;;;;;5067061;28;20190;-63
2022/05/29 04:04:56;;;;;;;3.13;1.80;;;11.50;80.90;;;;;;5065816;28;20440;-63
2022/05/29 04:12:03;;;;;;;2.77;1.63;;;11.50;80.70;;;;;;5068115;28;20182;-63
2022/05/29 04:12:57;;;;;;;3.53;2.00;;;11.50;80.40;;;;;;5072498;28;20473;-63
2022/05/29 04:15:23;;;;;;;3.97;2.10;;;11.50;80.00;;;;;;5064257;28;20452;-63
2022/05/29 04:17:48;;;;;;;4.87;1.90;;;11.60;80.20;;;;;;5077108;28;20466;-62
2022/05/29 04:20:14;;;;;;;2.67;1.77;;;11.50;79.80;;;;;;5061823;28;20227;-62
2022/05/29 04:22:40;;;;;;;2.00;1.80;;;11.60;79.30;;;;;;5050822;28;20291;-64
2022/05/29 04:25:06;;;;;;;3.83;1.67;;;11.60;79.00;;;;;;5066817;28;20224;-64
2022/05/29 04:27:32;;;;;;;2.70;1.73;;;11.50;78.90;;;;;;5050277;28;20182;-63
2022/05/29 04:29:58;;;;;;;4.47;1.90;;;11.60;79.00;;;;;;5054696;28;20434;-63
2022/05/29 04:35:08;;;;;;;4.43;1.63;;;11.60;78.40;;;;;;5067671;28;20205;-63
2022/05/29 04:37:33;;;;;;;3.77;2.03;;;11.70;76.50;;;;;;5069366;28;20468;-63
2022/05/29 04:39:59;;;;;;;2.83;1.70;;;11.70;75.90;;;;;;5055300;28;20460;-63
2022/05/29 04:42:25;;;;;;;2.60;1.90;;;11.80;76.20;;;;;;5058653;28;20246;-64
2022/05/29 04:44:50;;;;;;;3.20;1.70;;;11.70;75.90;;;;;;5058981;28;20190;-63
2022/05/29 04:47:16;;;;;;;2.03;1.70;;;11.70;76.50;;;;;;5073027;28;20174;-63
2022/05/29 04:49:42;;;;;;;2.03;1.80;;;11.80;76.50;;;;;;5052228;28;20231;-63
2022/05/29 04:52:09;;;;;;;2.80;2.00;;;11.80;76.90;;;;;;5070443;28;20232;-64
2022/05/29 04:54:40;;;;;;;2.10;1.90;;;11.80;76.60;;;;;;5053840;28;20428;-63
2022/05/29 04:57:07;;;;;;;4.87;2.60;;;11.80;76.70;;;;;;5055480;28;20427;-63
2022/05/29 04:59:33;;;;;;;4.90;1.67;;;11.80;77.10;;;;;;5074301;28;20466;-64
2022/05/29 05:01:59;;;;;;;2.47;1.80;;;11.90;77.10;;;;;;5069309;28;20427;-64
2022/05/29 05:04:26;;;;;;;4.33;1.90;;;11.90;76.80;;;;;;5060955;28;20489;-64
2022/05/29 05:06:58;;;;;;;3.20;1.70;;;12.00;76.50;;;;;;5066385;28;20210;-64
2022/05/29 05:09:27;;;;;;;1.97;1.80;;;12.00;74.80;;;;;;5069194;28;20181;-64
2022/05/29 05:11:54;;;;;;;3.50;2.00;;;12.00;73.50;;;;;;5071473;28;20435;-64
2022/05/29 05:14:21;;;;;;;1.70;1.60;;;12.00;72.80;;;;;;5065508;28;20212;-64
2022/05/29 05:16:47;;;;;;;4.40;1.73;;;12.00;72.10;;;;;;5065352;28;20420;-63
2022/05/29 05:19:14;;;;;;;4.53;1.80;;;12.00;71.50;;;;;;5055651;28;20178;-64
2022/05/29 05:21:40;;;;;;;3.97;1.93;;;11.90;70.80;;;;;;5065184;28;20186;-67
2022/05/29 05:24:07;;;;;;;2.80;1.80;;;12.00;71.40;;;;;;5066352;28;20439;-64
2022/05/29 05:26:34;;;;;;;3.50;1.87;;;12.00;71.30;;;;;;5069920;28;20544;-64
2022/05/29 05:28:59;;;;;;;2.40;1.67;;;12.00;70.90;;;;;;5058738;28;20417;-63
2022/05/29 05:31:25;;;;;;;2.47;1.60;;;12.00;69.60;;;;;;5062934;28;20174;-64
2022/05/29 05:33:51;;;;;;;3.70;1.60;;;12.00;69.80;;;;;;5058841;28;20282;-63
2022/05/29 05:36:19;;;;;;;5.60;2.20;;;12.10;70.50;;;;;;5049823;28;20198;-64
2022/05/29 05:38:45;;;;;;;1.63;1.40;;;12.10;69.70;;;;;;5073652;28;20204;-64
2022/05/29 05:41:12;;;;;;;2.87;1.73;;;12.20;69.90;;;;;;5056350;28;20454;-63
2022/05/29 05:43:39;;;;;;;3.10;1.70;;;12.20;71.40;;;;;;5071894;28;20495;-63
2022/05/29 05:46:13;;;;;;;3.23;2.00;;;12.20;70.20;;;;;;5063837;28;20201;-63
2022/05/29 05:48:39;;;;;;;4.10;1.77;;;12.20;70.70;;;;;;5064061;28;20215;-64
2022/05/29 05:51:06;;;;;;;2.63;2.30;;;12.30;71.80;;;;;;5044039;28;20182;-63
2022/05/29 05:53:33;;;;;;;1.97;1.70;;;12.30;71.70;;;;;;5052671;28;20277;-64
2022/05/29 05:55:58;;;;;;;2.53;2.00;;;12.30;73.00;;;;;;5043042;28;20186;-64
2022/05/29 05:58:24;;;;;;;8.63;2.07;;;12.40;73.70;;;;;;5054997;28;20190;-64
2022/05/29 06:00:50;;;;;;;4.00;2.03;;;12.40;71.50;;;;;;5056168;28;20185;-64
2022/05/29 06:03:17;;;;;;;4.97;1.93;;;12.50;72.20;;;;;;5065266;28;20182;-64
2022/05/29 06:05:43;;;;;;;2.60;1.90;;;12.50;72.10;;;;;;5067368;28;20197;-63
2022/05/29 06:08:09;;;;;;;3.43;1.60;;;12.60;72.80;;;;;;5061772;28;20178;-63
2022/05/29 06:10:34;;;;;;;4.37;1.80;;;12.60;71.90;;;;;;5042851;28;20220;-63
2022/05/29 06:13:05;;;;;;;2.33;1.60;;;12.60;72.60;;;;;;5078900;28;20209;-63
2022/05/29 06:15:31;;;;;;;4.83;2.07;;;12.60;72.80;;;;;;5059656;28;20383;-62
2022/05/29 06:17:57;;;;;;;3.23;1.80;;;12.60;72.50;;;;;;5060139;28;20189;-64
2022/05/29 06:20:24;;;;;;;3.83;2.03;;;12.60;72.80;;;;;;5040083;28;20186;-64
2022/05/29 06:22:50;;;;;;;3.23;1.87;;;12.60;73.70;;;;;;5062268;28;20174;-64
2022/05/29 06:25:18;;;;;;;3.00;2.13;;;12.70;73.70;;;;;;5056991;28;20203;-64
2022/05/29 06:27:44;;;;;;;2.40;1.70;;;12.80;74.80;;;;;;5059028;28;20204;-63
2022/05/29 06:30:13;;;;;;;3.33;2.00;;;12.90;74.90;;;;;;5059851;28;20207;-63
2022/05/29 06:32:39;;;;;;;6.00;1.80;;;13.00;73.10;;;;;;5062469;28;20181;-64
2022/05/29 06:35:07;;;;;;;1.87;1.67;;;13.10;71.10;;;;;;5045410;28;20186;-64
2022/05/29 06:37:35;;;;;;;2.70;1.80;;;13.10;70.40;;;;;;5053949;28;20198;-64
2022/05/29 06:40:01;;;;;;;2.63;1.57;;;13.20;71.00;;;;;;5056998;28;20195;-64
2022/05/29 06:42:27;;;;;;;4.57;1.83;;;13.30;71.40;;;;;;5054661;28;20261;-63
2022/05/29 06:44:53;;;;;;;3.00;1.70;;;13.30;71.30;;;;;;5068498;28;20182;-63
2022/05/29 06:47:19;;;;;;;2.37;1.73;;;13.30;71.40;;;;;;5040939;28;20194;-64
2022/05/29 06:49:49;;;;;;;3.90;1.67;;;13.30;71.40;;;;;;5043722;28;20196;-63
2022/05/29 06:52:15;;;;;;;5.23;1.90;;;13.40;70.60;;;;;;5077810;28;20185;-63
2022/05/29 06:54:41;;;;;;;5.50;1.70;;;13.50;71.90;;;;;;5074041;28;20316;-63
2022/05/29 06:57:07;;;;;;;3.93;1.90;;;13.50;70.60;;;;;;5055679;28;20280;-63
2022/05/29 07:08:09;;;;;;;3.83;1.80;;;13.90;69.40;;;;;;5051299;28;20221;-64
2022/05/29 07:10:35;;;;;;;3.97;2.00;;;13.90;70.40;;;;;;5051834;28;20196;-64
2022/05/29 07:13:01;;;;;;;2.20;1.93;;;14.10;70.50;;;;;;5057864;28;20189;-64
2022/05/29 07:15:28;;;;;;;2.13;1.90;;;14.20;70.00;;;;;;5055186;28;20194;-63
2022/05/29 07:17:53;;;;;;;3.70;2.47;;;14.30;69.70;;;;;;5040081;28;20190;-64
2022/05/29 07:20:19;;;;;;;7.53;2.60;;;14.40;69.60;;;;;;5056960;28;20189;-64
2022/05/29 07:22:45;;;;;;;7.40;2.90;;;14.60;70.40;;;;;;5038427;28;20186;-64
2022/05/29 07:25:12;;;;;;;2.90;2.37;;;14.70;69.90;;;;;;5053035;28;20214;-64
2022/05/29 07:27:39;;;;;;;5.23;2.50;;;14.70;69.60;;;;;;5067512;28;20184;-63
2022/05/29 07:30:06;;;;;;;2.20;1.90;;;14.80;69.10;;;;;;5054165;28;20197;-63
2022/05/29 07:32:32;;;;;;;2.77;2.47;;;14.80;67.10;;;;;;5043413;28;20190;-64
2022/05/29 07:34:59;;;;;;;4.00;2.20;;;14.80;69.00;;;;;;5054770;28;20182;-63
2022/05/29 07:37:26;;;;;;;2.23;2.03;;;14.70;69.20;;;;;;5060326;28;20207;-65
2022/05/29 07:39:53;;;;;;;5.90;2.40;;;14.70;69.50;;;;;;5051613;28;20246;-63
2022/05/29 07:45:06;;;;;;;2.43;1.77;;;14.70;68.90;;;;;;5072775;28;20193;-63
2022/05/29 07:47:43;;;;;;;2.90;2.20;;;14.60;69.00;;;;;;5083733;28;20197;-63
2022/05/29 07:50:11;;;;;;;2.53;2.33;;;14.60;69.70;;;;;;5053490;28;20193;-62
2022/05/29 07:52:37;;;;;;;4.23;2.20;;;14.60;70.00;;;;;;5067113;28;20186;-62
2022/05/29 07:55:03;;;;;;;3.93;1.83;;;14.50;71.30;;;;;;5042575;28;20201;-63
2022/05/29 07:57:29;;;;;;;3.30;2.17;;;14.50;71.60;;;;;;5067498;28;20182;-63
2022/05/29 07:59:54;;;;;;;3.87;2.00;;;14.50;72.20;;;;;;5053520;28;20197;-64
2022/05/29 08:02:20;;;;;;;3.20;2.17;;;14.50;72.60;;;;;;5047710;28;20182;-65
2022/05/29 08:04:46;;;;;;;3.57;2.30;;;14.60;72.80;;;;;;5055740;28;20225;-64
2022/05/29 08:07:15;;;;;;;2.83;1.90;;;14.60;72.10;;;;;;5053227;28;20241;-63
2022/05/29 08:09:41;;;;;;;2.67;2.10;;;14.70;71.30;;;;;;5072690;28;20177;-63
2022/05/29 08:12:07;;;;;;;2.07;1.83;;;14.80;71.70;;;;;;5065528;28;20185;-63
2022/05/29 08:14:33;;;;;;;3.00;2.20;;;15.00;71.60;;;;;;5044350;28;20181;-64
2022/05/29 08:16:59;;;;;;;3.33;2.13;;;15.10;71.20;;;;;;5068994;28;20281;-64
2022/05/29 08:19:25;;;;;;;3.00;2.10;;;15.20;69.70;;;;;;5067929;28;20273;-64
2022/05/29 08:21:50;;;;;;;2.47;1.93;;;15.30;68.50;;;;;;5061355;28;20205;-65
2022/05/29 08:32:28;;;;;;;2.30;1.53;;;15.60;67.40;;;;;;5045752;28;20180;-63
2022/05/29 08:34:53;;;;;;;1.60;1.43;;;15.70;66.30;;;;;;5061510;28;20182;-62
2022/05/29 08:37:19;;;;;;;1.93;1.63;;;15.80;66.10;;;;;;5035469;28;20187;-62
2022/05/29 08:39:45;;;;;;;3.53;2.17;;;15.80;65.30;;;;;;5053682;28;20186;-63
2022/05/29 08:42:16;;;;;;;4.67;1.57;;;15.80;63.60;;;;;;5053712;28;20278;-63
2022/05/29 08:44:50;;;;;;;5.33;1.67;;;15.90;64.80;;;;;;5066018;28;20182;-63
2022/05/29 08:47:24;;;;;;;2.73;1.50;;;16.00;66.00;;;;;;5068408;28;20216;-63
2022/05/29 08:49:49;;;;;;;3.40;1.70;;;16.00;64.90;;;;;;5061226;28;20265;-62
2022/05/29 08:52:31;;;;;;;2.10;1.83;;;16.10;66.30;;;;;;5063191;28;20295;-62
2022/05/29 08:55:06;;;;;;;2.70;1.63;;;16.10;64.60;;;;;;5064962;28;20180;-63
2022/05/29 08:57:51;;;;;;;4.10;1.60;;;16.10;64.70;;;;;;5068091;28;20177;-63
2022/05/29 09:00:25;;;;;;;2.60;1.70;;;16.10;64.50;;;;;;5061993;28;20183;-63
2022/05/29 09:03:17;;;;;;;1.83;1.67;;;16.10;64.00;;;;;;5071623;28;20245;-63
2022/05/29 09:05:57;;;;;;;2.40;1.90;;;16.20;63.70;;;;;;5058344;28;20220;-63
2022/05/29 09:08:37;;;;;;;2.90;1.70;;;16.20;64.00;;;;;;5060086;28;20182;-62
2022/05/29 09:11:27;;;;;;;4.10;1.30;;;16.20;64.40;;;;;;5066711;28;20182;-62
2022/05/29 09:14:17;;;;;;;2.37;1.43;;;16.30;63.00;;;;;;5068722;28;20186;-64
2022/05/29 09:16:46;;;;;;;1.40;1.30;;;16.30;62.70;;;;;;5051989;28;20207;-62
2022/05/29 09:19:44;;;;;;;1.77;1.30;;;16.40;64.00;;;;;;5067616;28;20727;-64
2022/05/29 09:22:19;;;;;;;4.10;1.97;;;16.40;65.80;;;;;;5057116;28;20195;-64
2022/05/29 09:25:20;;;;;;;1.80;1.50;;;16.30;67.70;;;;;;5068132;28;20188;-62
2022/05/29 09:27:49;;;;;;;1.40;1.30;;;16.20;66.70;;;;;;5003902;28;20189;-63
2022/05/29 09:30:16;;;;;;;1.30;1.20;;;16.00;67.50;;;;;;5044542;28;20201;-63
2022/05/29 09:32:51;;;;;;;1.87;1.40;;;15.90;67.00;;;;;;5066575;28;20179;-63
2022/05/29 09:36:02;;;;;;;2.60;1.37;;;15.90;69.30;;;;;;5069678;28;20281;-64
2022/05/29 09:38:37;;;;;;;3.43;1.33;;;15.80;70.00;;;;;;5005892;28;20184;-63
2022/05/29 09:41:11;;;;;;;2.43;1.37;;;15.70;69.20;;;;;;4998406;28;20219;-60
2022/05/29 09:43:36;;;;;;;2.20;1.40;;;15.70;69.80;;;;;;5040001;28;20618;-61
2022/05/29 09:46:22;;;;;;;1.77;1.40;;;15.60;71.20;;;;;;5075675;28;20300;-61
2022/05/29 09:51:47;;;;;;;5.27;1.83;;;15.40;70.30;;;;;;5072093;28;20228;-61
2022/05/29 09:54:33;;;;;;;2.50;1.70;;;15.40;71.50;;;;;;5091943;28;20194;-60
2022/05/29 09:57:22;;;;;;;1.73;1.50;;;15.30;71.30;;;;;;5082608;28;20200;-63
2022/05/29 09:59:51;;;;;;;5.83;1.70;;;15.30;72.20;;;;;;5056903;28;20190;-64
2022/05/29 10:02:27;;;;;;;1.97;1.43;;;15.10;75.10;;;;;;5072429;28;20264;-66
2022/05/29 10:04:57;;;;;;;1.63;1.37;;;14.90;77.00;;;;;;5065128;28;20201;-66
2022/05/29 10:07:30;;;;;;;4.60;1.63;;;14.50;76.60;;;;;;5072643;28;20231;-67
2022/05/29 10:10:07;;;;;;;3.13;1.50;;;14.20;78.70;;;;;;5066153;28;20186;-68
2022/05/29 10:12:47;;;;;;;1.70;1.37;;;14.00;80.50;;;;;;5061286;28;20178;-67
2022/05/29 10:15:24;;;;;;;2.33;1.40;;;13.80;81.30;;;;;;5065341;28;20318;-67
2022/05/29 10:17:58;;;;;;;4.87;1.70;;;13.70;81.80;;;;;;5072247;28;20323;-66
2022/05/29 10:20:32;;;;;;;2.67;1.60;;;13.60;82.10;;;;;;5057806;28;20174;-67
2022/05/29 10:23:11;;;;;;;3.20;1.63;;;13.40;82.80;;;;;;5073494;28;20205;-67
2022/05/29 10:25:42;;;;;;;1.80;1.60;;;13.30;83.60;;;;;;5065312;28;20229;-66
2022/05/29 10:28:15;;;;;;;1.67;1.30;;;13.30;83.10;;;;;;5071078;28;20225;-66
2022/05/29 10:30:54;;;;;;;2.50;1.50;;;13.20;83.40;;;;;;5065048;28;20648;-66
2022/05/29 10:33:22;;;;;;;2.37;1.83;;;13.20;84.20;;;;;;5075304;28;20238;-65
2022/05/29 10:35:50;;;;;;;3.30;1.80;;;13.20;84.00;;;;;;5060521;28;20209;-66
2022/05/29 10:38:28;;;;;;;2.70;1.60;;;13.20;83.70;;;;;;5061604;28;20182;-65
2022/05/29 10:40:58;;;;;;;3.53;1.80;;;13.10;83.50;;;;;;5066574;28;20186;-66
2022/05/29 10:43:38;;;;;;;2.47;2.00;;;13.20;83.80;;;;;;5063425;28;20241;-63
2022/05/29 10:46:18;;;;;;;2.63;2.00;;;13.10;83.70;;;;;;5064617;28;20211;-65
2022/05/29 10:49:27;;;;;;;1.93;1.73;;;13.10;84.20;;;;;;5070580;28;20304;-65
2022/05/29 10:52:24;;;;;;;2.07;1.80;;;13.00;84.60;;;;;;5073592;28;20184;-63
2022/05/29 10:55:01;;;;;;;4.73;1.80;;;13.10;84.40;;;;;;5064820;28;20190;-66
2022/05/29 10:57:46;;;;;;;4.17;1.70;;;13.00;83.10;;;;;;5067329;28;20179;-66
2022/05/29 11:00:37;;;;;;;3.97;2.20;;;13.00;83.90;;;;;;5060555;28;20171;-66
2022/05/29 11:03:24;;;;;;;2.20;1.90;;;13.10;84.10;;;;;;5077091;28;20228;-67
2022/05/29 11:06:26;;;;;;;2.10;1.90;;;13.20;84.70;;;;;;5061727;28;20284;-67
2022/05/29 11:09:15;;;;;;;2.43;1.87;;;13.20;85.50;;;;;;5077914;28;20269;-68
2022/05/29 11:12:07;;;;;;;2.53;1.53;;;13.30;84.80;;;;;;5061315;28;20257;-67
2022/05/29 11:14:53;;;;;;;2.57;2.20;;;13.30;84.70;;;;;;5063055;28;20178;-66
2022/05/29 11:17:52;;;;;;;2.60;2.37;;;13.30;84.50;;;;;;5077433;28;20196;-67
2022/05/29 11:21:02;;;;;;;2.30;2.03;;;13.30;84.00;;;;;;5032907;28;20190;-65
2022/05/29 11:23:46;;;;;;;2.90;2.33;;;13.30;84.40;;;;;;5081536;28;20182;-65
2022/05/29 11:26:32;;;;;;;3.40;2.03;;;13.30;84.90;;;;;;5058494;28;20485;-65
2022/05/29 11:29:09;;;;;;;2.10;1.77;;;13.30;85.40;;;;;;5064608;28;20223;-65
2022/05/29 11:31:35;;;;;;;2.30;2.10;;;13.30;84.80;;;;;;5078846;28;20218;-65
2022/05/29 11:34:20;;;;;;;2.30;2.10;;;13.30;85.40;;;;;;5060611;28;20228;-66
2022/05/29 11:36:55;;;;;;;2.63;2.17;;;13.30;85.80;;;;;;5060640;28;20405;-66
2022/05/29 11:39:23;;;;;;;2.27;1.93;;;13.30;85.30;;;;;;5061791;28;20208;-66
2022/05/29 11:42:10;;;;;;;2.77;2.30;;;13.30;84.80;;;;;;5062214;28;20316;-66
2022/05/29 11:44:43;;;;;;;3.80;2.43;;;13.40;85.40;;;;;;5061670;28;20193;-66
2022/05/29 11:53:22;;;;;;;5.17;2.33;;;13.50;84.70;;;;;;5063228;28;20217;-66
2022/05/29 11:55:50;;;;;;;2.77;2.07;;;13.70;85.70;;;;;;5065710;28;20196;-66
2022/05/29 11:58:40;;;;;;;5.50;2.17;;;13.80;85.00;;;;;;5075433;28;20186;-66
2022/05/29 12:01:17;;;;;;;3.93;2.43;;;13.80;83.90;;;;;;5061488;28;20186;-66
2022/05/29 12:04:06;;;;;;;4.07;1.87;;;13.80;83.90;;;;;;5058126;28;20197;-65
2022/05/29 12:06:35;;;;;;;2.87;1.53;;;13.80;84.10;;;;;;5062851;28;20201;-66
2022/05/29 12:09:07;;;;;;;3.67;1.87;;;13.80;83.30;;;;;;5066711;28;20186;-65
2022/05/29 12:11:42;;;;;;;1.67;1.53;;;13.80;82.40;;;;;;5074186;28;20182;-65
2022/05/29 12:14:13;;;;;;;2.37;1.70;;;13.80;82.20;;;;;;5058647;28;20185;-65
2022/05/29 12:16:43;;;;;;;3.63;1.50;;;13.80;81.50;;;;;;5061689;28;20189;-65
2022/05/29 12:19:17;;;;;;;2.20;1.40;;;13.60;80.80;;;;;;5059063;28;20187;-68
2022/05/29 12:21:55;;;;;;;2.77;1.97;;;13.50;81.50;;;;;;5075651;28;20201;-66
2022/05/29 12:24:25;;;;;;;2.30;1.57;;;13.30;81.90;;;;;;5072705;28;20181;-67
2022/05/29 12:27:24;;;;;;;7.03;2.27;;;13.30;82.90;;;;;;5053025;28;20221;-67
2022/05/29 12:30:02;;;;;;;1.87;1.63;;;13.30;83.10;;;;;;5077972;28;20219;-67
2022/05/29 12:32:30;;;;;;;3.13;2.13;;;13.20;83.30;;;;;;5068690;28;20230;-69
2022/05/29 12:34:58;;;;;;;4.23;1.77;;;13.20;83.80;;;;;;5064314;28;20636;-68
2022/05/29 12:37:48;;;;;;;3.70;1.90;;;13.20;84.00;;;;;;5063339;28;20196;-68
2022/05/29 12:40:31;;;;;;;4.07;2.00;;;13.10;84.90;;;;;;5070047;28;20198;-69
2022/05/29 12:43:09;;;;;;;4.60;2.20;;;13.10;85.20;;;;;;5072919;28;20244;-70
2022/05/29 12:45:50;;;;;;;5.20;2.47;;;13.00;85.20;;;;;;5075378;28;20213;-69
2022/05/29 12:48:18;;;;;;;3.83;2.20;;;13.00;85.60;;;;;;5080557;28;20269;-70
2022/05/29 12:51:00;;;;;;;2.10;1.90;;;12.90;85.90;;;;;;5073212;28;20178;-71
2022/05/29 12:53:48;;;;;;;2.30;2.10;;;12.80;85.80;;;;;;5059956;28;20187;-66
2022/05/29 12:56:32;;;;;;;4.73;2.30;;;12.80;86.30;;;;;;5066007;28;20182;-67
2022/05/29 12:59:12;;;;;;;5.13;2.40;;;12.80;86.20;;;;;;5073909;28;20213;-68
2022/05/29 13:02:13;;;;;;;3.00;2.40;;;12.80;86.30;;;;;;5060223;28;20193;-67
2022/05/29 13:05:17;;;;;;;2.93;2.63;;;12.70;86.50;;;;;;5051657;28;20256;-67
2022/05/29 13:08:08;;;;;;;3.17;2.23;;;12.70;86.70;;;;;;5088652;28;20209;-68
2022/05/29 13:10:42;;;;;;;3.07;2.73;;;12.70;86.90;;;;;;5080947;28;20174;-67
2022/05/29 13:13:29;;;;;;;3.00;2.70;;;12.70;86.10;;;;;;5050986;28;20217;-66
2022/05/29 13:15:55;;;;;;;8.00;2.63;;;12.70;86.60;;;;;;5072380;28;20233;-67
2022/05/29 13:21:13;;;;;;;2.70;2.50;;;12.70;86.20;;;;;;5069705;28;20182;-67
2022/05/29 13:23:48;;;;;;;3.00;2.80;;;12.70;86.20;;;;;;5061776;28;20213;-67
2022/05/29 13:26:27;;;;;;;2.87;2.57;;;12.70;86.30;;;;;;5073089;28;20232;-68
2022/05/29 13:29:05;;;;;;;4.63;3.23;;;12.70;85.40;;;;;;5065964;28;20231;-66
2022/05/29 13:32:09;;;;;;;3.93;2.30;;;12.70;86.50;;;;;;5071627;28;20231;-69
2022/05/29 13:34:35;;;;;;;3.23;2.93;;;12.60;85.50;;;;;;5070871;28;20185;-65
2022/05/29 13:37:03;;;;;;;4.33;2.73;;;12.50;85.60;;;;;;5052467;28;20200;-66
2022/05/29 13:39:35;;;;;;;5.03;2.70;;;12.40;86.10;;;;;;5059166;28;20182;-65
2022/05/29 13:42:10;;;;;;;3.33;3.13;;;12.40;86.20;;;;;;5074896;28;20284;-65
2022/05/29 13:44:37;;;;;;;5.80;2.70;;;12.40;86.00;;;;;;5067440;28;20250;-68
2022/05/29 13:47:22;;;;;;;2.93;2.60;;;12.40;86.20;;;;;;5066942;28;20237;-68
2022/05/29 13:50:11;;;;;;;3.27;2.57;;;12.40;86.00;;;;;;5073734;28;20585;-66
2022/05/29 13:52:54;;;;;;;5.07;3.73;;;12.40;86.20;;;;;;5066349;28;20183;-65
2022/05/29 13:55:32;;;;;;;3.37;2.73;;;12.40;87.20;;;;;;5075646;28;20197;-66
2022/05/29 14:04:30;;;;;;;3.60;2.93;;;12.70;87.50;;;;;;5064236;28;20196;-66
2022/05/29 14:07:13;;;;;;;7.50;3.43;;;12.70;87.30;;;;;;5069339;28;20213;-66